createdAt,value
2023-04-16T00:01:12.142Z,4.83
2023-04-16T00:03:39.336Z,4.50
2023-04-16T00:06:06.481Z,5.23
2023-04-16T00:08:33.476Z,5.03
2023-04-16T00:11:00.583Z,4.40
2023-04-16T00:13:28.153Z,4.83
2023-04-16T00:15:55.253Z,5.47
2023-04-16T00:18:22.312Z,4.53
2023-04-16T00:21:02.642Z,5.13
2023-04-16T00:23:29.587Z,5.20
2023-04-16T00:26:02.835Z,4.93
2023-04-16T00:28:29.800Z,4.90
2023-04-16T00:30:56.873Z,4.67
2023-04-16T00:33:39.047Z,5.17
2023-04-16T00:36:06.439Z,5.20
2023-04-16T00:38:35.261Z,4.77
2023-04-16T00:41:02.306Z,4.70
2023-04-16T00:43:29.223Z,4.23
2023-04-16T00:45:57.580Z,4.73
2023-04-16T00:48:28.150Z,3.70
2023-04-16T00:50:55.919Z,3.43
2023-04-16T00:53:22.981Z,3.20
2023-04-16T00:55:50.646Z,3.33
2023-04-16T00:58:19.756Z,3.07
2023-04-16T01:00:46.660Z,2.93
2023-04-16T01:03:13.865Z,2.77
2023-04-16T01:05:41.172Z,2.90
2023-04-16T01:08:16.477Z,3.20
2023-04-16T01:10:43.385Z,3.00
2023-04-16T01:13:16.413Z,3.07
2023-04-16T01:15:50.603Z,2.90
2023-04-16T01:18:20.159Z,2.80
2023-04-16T01:20:48.444Z,2.90
2023-04-16T01:23:16.080Z,2.53
2023-04-16T01:25:43.278Z,2.23
2023-04-16T01:28:10.714Z,3.20
2023-04-16T01:30:51.041Z,2.07
2023-04-16T01:33:19.507Z,2.40
2023-04-16T01:35:47.591Z,2.90
2023-04-16T01:38:14.555Z,2.70
2023-04-16T01:40:41.505Z,3.10
2023-04-16T01:43:08.451Z,2.80
2023-04-16T01:45:36.318Z,3.00
2023-04-16T01:48:04.515Z,3.27
2023-04-16T01:50:32.882Z,3.40
2023-04-16T01:53:01.961Z,3.70
2023-04-16T01:55:33.993Z,3.50
2023-04-16T01:58:00.916Z,4.10
2023-04-16T02:00:28.035Z,3.60
2023-04-16T02:02:55.071Z,3.90
2023-04-16T02:05:22.253Z,4.10
2023-04-16T02:07:49.314Z,3.50
2023-04-16T02:10:16.566Z,3.70
2023-04-16T02:12:43.483Z,3.57
2023-04-16T02:15:11.109Z,3.10
2023-04-16T02:17:38.051Z,3.17
2023-04-16T02:20:08.039Z,2.77
2023-04-16T02:22:35.053Z,2.90
2023-04-16T02:25:02.076Z,2.40
2023-04-16T02:27:29.069Z,2.10
2023-04-16T02:29:56.103Z,2.37
2023-04-16T02:32:22.990Z,1.70
2023-04-16T02:34:52.017Z,1.87
2023-04-16T02:37:19.296Z,1.70
2023-04-16T02:39:47.429Z,1.90
2023-04-16T02:42:14.824Z,1.80
2023-04-16T02:45:24.407Z,2.57
2023-04-16T02:48:08.815Z,1.70
2023-04-16T02:50:43.033Z,2.17
2023-04-16T02:53:16.117Z,2.47
2023-04-16T02:55:55.003Z,2.33
2023-04-16T02:58:24.410Z,2.30
2023-04-16T03:01:03.832Z,2.00
2023-04-16T03:03:30.923Z,1.93
2023-04-16T03:05:57.861Z,2.70
2023-04-16T03:08:24.925Z,2.17
2023-04-16T03:10:52.118Z,2.03
2023-04-16T03:13:19.019Z,2.07
2023-04-16T03:15:53.571Z,2.30
2023-04-16T03:19:16.430Z,1.67
2023-04-16T03:21:48.614Z,1.70
2023-04-16T03:24:15.872Z,1.80
2023-04-16T03:26:48.647Z,2.03
2023-04-16T03:29:15.564Z,1.70
2023-04-16T03:31:53.821Z,2.57
2023-04-16T03:34:20.882Z,1.63
2023-04-16T03:37:34.986Z,1.80
2023-04-16T03:40:02.188Z,1.93
2023-04-16T03:42:29.080Z,1.70
2023-04-16T03:44:56.196Z,1.60
2023-04-16T03:47:23.539Z,1.80
2023-04-16T03:49:50.960Z,1.70
2023-04-16T03:52:18.122Z,1.83
2023-04-16T03:54:45.160Z,1.70
2023-04-16T03:57:12.098Z,1.67
2023-04-16T03:59:40.119Z,1.93
2023-04-16T04:02:07.187Z,2.10
2023-04-16T04:04:34.273Z,2.00
2023-04-16T04:07:01.322Z,1.90
2023-04-16T04:09:28.392Z,2.20
2023-04-16T04:11:58.919Z,2.20
2023-04-16T04:14:32.745Z,2.23
2023-04-16T04:16:59.775Z,2.00
2023-04-16T04:19:26.687Z,2.40
2023-04-16T04:21:53.710Z,2.47
2023-04-16T04:24:56.653Z,2.20
2023-04-16T04:27:23.602Z,1.90
2023-04-16T04:29:50.653Z,2.10
2023-04-16T04:32:21.788Z,2.27
2023-04-16T04:34:48.787Z,2.30
2023-04-16T04:37:15.957Z,2.53
2023-04-16T04:39:42.916Z,2.30
2023-04-16T04:42:09.987Z,2.13
2023-04-16T04:44:36.944Z,2.70
2023-04-16T04:47:03.881Z,2.20
2023-04-16T04:49:36.031Z,2.10
2023-04-16T04:52:15.370Z,2.87
2023-04-16T04:54:42.441Z,2.53
2023-04-16T04:57:09.457Z,2.33
2023-04-16T04:59:36.672Z,2.50
2023-04-16T05:02:03.861Z,2.17
2023-04-16T05:04:31.620Z,2.50
2023-04-16T05:06:58.677Z,2.63
2023-04-16T05:09:25.900Z,2.70
2023-04-16T05:11:54.048Z,2.73
2023-04-16T05:14:21.319Z,2.60
2023-04-16T05:16:48.381Z,2.80
2023-04-16T05:19:16.621Z,2.57
2023-04-16T05:21:43.719Z,2.80
2023-04-16T05:24:11.294Z,2.70
2023-04-16T05:26:39.493Z,2.33
2023-04-16T05:29:06.477Z,2.70
2023-04-16T05:31:33.413Z,3.00
2023-04-16T05:34:03.562Z,2.80
2023-04-16T05:36:35.936Z,3.20
2023-04-16T05:39:03.016Z,2.50
2023-04-16T05:41:29.983Z,2.50
2023-04-16T05:43:56.902Z,2.83
2023-04-16T05:46:23.990Z,2.23
2023-04-16T05:48:51.047Z,2.50
2023-04-16T05:51:18.049Z,2.73
2023-04-16T05:53:45.135Z,2.33
2023-04-16T05:56:23.486Z,2.23
2023-04-16T05:58:50.588Z,2.37
2023-04-16T06:01:18.314Z,2.53
2023-04-16T06:03:45.652Z,2.13
2023-04-16T06:06:13.020Z,2.20
2023-04-16T06:08:39.973Z,2.60
2023-04-16T06:11:07.204Z,2.40
2023-04-16T06:13:34.319Z,2.20
2023-04-16T06:16:01.495Z,2.20
2023-04-16T06:18:28.480Z,1.90
2023-04-16T06:20:55.577Z,1.90
2023-04-16T06:23:22.758Z,1.57
2023-04-16T06:25:49.639Z,1.80
2023-04-16T06:28:16.566Z,1.77
2023-04-16T06:30:44.629Z,2.07
2023-04-16T06:33:11.922Z,1.80
2023-04-16T06:36:42.449Z,1.87
2023-04-16T06:39:09.699Z,2.20
2023-04-16T06:41:37.150Z,2.47
2023-04-16T06:44:04.152Z,2.00
2023-04-16T06:46:31.352Z,2.07
2023-04-16T06:48:58.302Z,1.80
2023-04-16T06:51:26.722Z,2.20
2023-04-16T06:53:53.632Z,2.47
2023-04-16T06:56:20.632Z,1.80
2023-04-16T06:58:47.621Z,1.90
2023-04-16T07:01:21.686Z,2.00
2023-04-16T07:03:48.811Z,1.90
2023-04-16T07:06:17.174Z,2.57
2023-04-16T07:08:44.167Z,1.80
2023-04-16T07:11:11.161Z,2.10
2023-04-16T07:13:38.122Z,1.53
2023-04-16T07:16:05.845Z,1.87
2023-04-16T07:18:32.934Z,1.63
2023-04-16T07:21:06.182Z,1.80
2023-04-16T07:23:33.074Z,1.67
2023-04-16T07:25:59.978Z,2.10
2023-04-16T07:28:26.980Z,2.30
2023-04-16T07:30:53.918Z,1.97
2023-04-16T07:33:20.894Z,1.97
2023-04-16T07:35:50.223Z,2.03
2023-04-16T07:38:17.238Z,1.93
2023-04-16T07:40:44.203Z,2.50
2023-04-16T07:43:11.576Z,2.30
2023-04-16T07:45:38.603Z,2.00
2023-04-16T07:48:06.868Z,2.60
2023-04-16T07:50:33.874Z,2.40
2023-04-16T07:53:01.722Z,2.30
2023-04-16T07:55:40.030Z,2.30
2023-04-16T07:58:10.609Z,2.40
2023-04-16T08:00:37.954Z,2.00
2023-04-16T08:03:05.376Z,2.23
2023-04-16T08:05:32.446Z,2.20
2023-04-16T08:07:59.378Z,2.63
2023-04-16T08:10:26.632Z,3.20
2023-04-16T08:12:53.947Z,1.80
2023-04-16T08:15:21.176Z,2.00
2023-04-16T08:17:53.737Z,2.37
2023-04-16T08:20:20.829Z,2.10
2023-04-16T08:22:49.298Z,2.33
2023-04-16T08:25:16.312Z,2.13
2023-04-16T08:27:43.285Z,1.70
2023-04-16T08:30:10.496Z,2.30
2023-04-16T08:32:37.483Z,2.40
2023-04-16T08:35:04.866Z,2.33
2023-04-16T08:37:31.840Z,1.77
2023-04-16T08:39:58.728Z,2.10
2023-04-16T08:43:01.309Z,2.20
2023-04-16T08:45:28.394Z,2.20
2023-04-16T08:47:55.481Z,2.57
2023-04-16T08:50:26.774Z,2.13
2023-04-16T08:52:59.664Z,2.47
2023-04-16T08:55:49.157Z,2.10
2023-04-16T08:58:20.828Z,2.20
2023-04-16T09:00:49.513Z,2.60
2023-04-16T09:03:17.052Z,2.40
2023-04-16T09:05:44.413Z,2.30
2023-04-16T09:08:11.376Z,2.60
2023-04-16T09:10:38.334Z,2.40
2023-04-16T09:13:05.375Z,2.57
2023-04-16T09:15:35.169Z,2.10
2023-04-16T09:18:02.215Z,2.20
2023-04-16T09:20:29.235Z,2.63
2023-04-16T09:22:57.134Z,3.10
2023-04-16T09:25:26.429Z,2.10
2023-04-16T09:27:53.608Z,2.57
2023-04-16T09:30:27.163Z,2.20
2023-04-16T09:33:22.628Z,2.27
2023-04-16T09:35:54.237Z,2.00
2023-04-16T09:38:21.755Z,2.23
2023-04-16T09:41:09.232Z,2.30
2023-04-16T09:43:37.015Z,2.37
2023-04-16T09:46:08.016Z,2.47
2023-04-16T09:48:36.224Z,2.65
2023-04-16T09:51:06.710Z,2.73
2023-04-16T09:53:33.700Z,2.77
2023-04-16T09:56:11.757Z,2.83
2023-04-16T09:58:39.149Z,2.50
2023-04-16T10:01:09.902Z,2.90
2023-04-16T10:03:39.903Z,2.23
2023-04-16T10:06:07.015Z,2.60
2023-04-16T10:08:34.064Z,2.77
2023-04-16T10:11:01.459Z,2.60
2023-04-16T10:13:28.453Z,2.50
2023-04-16T10:15:57.334Z,2.90
2023-04-16T10:18:24.551Z,2.30
2023-04-16T10:20:51.943Z,2.10
2023-04-16T10:23:22.082Z,2.30
2023-04-16T10:25:50.553Z,2.38
2023-04-16T10:28:17.799Z,2.45
2023-04-16T10:30:54.251Z,2.35
2023-04-16T10:33:28.068Z,2.60
2023-04-16T10:36:27.698Z,2.20
2023-04-16T10:39:00.147Z,2.28
2023-04-16T10:41:27.637Z,2.00
2023-04-16T10:44:10.003Z,2.40
2023-04-16T10:46:51.375Z,2.10
2023-04-16T10:49:26.511Z,2.05
2023-04-16T10:51:58.694Z,2.53
2023-04-16T10:54:41.417Z,2.40
2023-04-16T10:57:17.804Z,2.60
2023-04-16T10:59:46.106Z,2.30
2023-04-16T11:02:18.346Z,2.60
2023-04-16T11:04:47.796Z,2.72
2023-04-16T11:07:33.051Z,2.45
2023-04-16T11:10:04.543Z,2.10
2023-04-16T11:12:50.367Z,2.25
2023-04-16T11:15:21.951Z,2.58
2023-04-16T11:17:54.627Z,2.40
2023-04-16T11:20:28.387Z,2.78
2023-04-16T11:22:57.527Z,2.75
2023-04-16T11:25:30.117Z,2.85
2023-04-16T11:27:59.337Z,3.05
2023-04-16T11:30:30.843Z,2.33
2023-04-16T11:32:57.889Z,2.90
2023-04-16T11:35:25.031Z,2.80
2023-04-16T11:37:57.330Z,2.65
2023-04-16T11:40:25.214Z,2.70
2023-04-16T11:42:52.275Z,2.90
2023-04-16T11:45:19.527Z,3.00
2023-04-16T11:47:53.096Z,3.08
2023-04-16T11:50:23.569Z,3.22
2023-04-16T11:52:52.709Z,2.60
2023-04-16T11:55:20.672Z,2.65
2023-04-16T11:57:48.270Z,2.85
2023-04-16T12:00:15.861Z,2.60
2023-04-16T12:02:52.361Z,2.80
2023-04-16T12:05:37.266Z,2.78
2023-04-16T12:08:10.269Z,3.15
2023-04-16T12:10:55.239Z,2.40
2023-04-16T12:13:22.806Z,2.83
2023-04-16T12:15:51.936Z,2.53
2023-04-16T12:18:22.499Z,2.83
2023-04-16T12:20:53.257Z,3.00
2023-04-16T12:23:24.193Z,2.97
2023-04-16T12:25:52.202Z,2.70
2023-04-16T12:28:30.976Z,3.40
2023-04-16T12:30:58.038Z,3.00
2023-04-16T12:33:25.469Z,2.90
2023-04-16T12:35:52.584Z,3.00
2023-04-16T12:38:20.438Z,3.37
2023-04-16T12:40:48.746Z,2.90
2023-04-16T12:43:16.017Z,3.10
2023-04-16T12:45:43.014Z,2.67
2023-04-16T12:48:10.311Z,2.87
2023-04-16T12:50:37.309Z,2.90
2023-04-16T12:53:04.383Z,3.00
2023-04-16T12:55:31.418Z,3.50
2023-04-16T12:57:58.366Z,2.93
2023-04-16T13:00:25.451Z,3.30
2023-04-16T13:02:52.664Z,2.87
2023-04-16T13:05:19.764Z,3.10
2023-04-16T13:07:46.794Z,3.43
2023-04-16T13:10:13.845Z,3.07
2023-04-16T13:12:41.046Z,3.50
2023-04-16T13:15:09.218Z,3.50
2023-04-16T13:17:36.232Z,3.40
2023-04-16T13:20:03.348Z,3.23
2023-04-16T13:22:30.508Z,3.40
2023-04-16T13:24:57.477Z,3.77
2023-04-16T13:27:24.561Z,3.08
2023-04-16T13:29:51.491Z,3.33
2023-04-16T13:32:18.934Z,3.43
2023-04-16T13:34:46.088Z,3.17
2023-04-16T13:37:13.242Z,3.23
2023-04-16T13:39:40.176Z,3.25
2023-04-16T13:42:07.235Z,3.60
2023-04-16T13:44:34.148Z,3.30
2023-04-16T13:47:01.390Z,3.38
2023-04-16T13:49:28.414Z,3.67
2023-04-16T13:51:55.476Z,3.22
2023-04-16T13:54:22.409Z,3.45
2023-04-16T13:56:51.235Z,3.85
2023-04-16T13:59:18.777Z,3.40
2023-04-16T14:01:45.822Z,3.83
2023-04-16T14:04:12.895Z,3.63
2023-04-16T14:06:39.916Z,4.18
2023-04-16T14:09:07.154Z,5.65
2023-04-16T14:11:34.084Z,5.95
2023-04-16T14:14:01.002Z,4.33
2023-04-16T14:16:27.979Z,5.38
2023-04-16T14:18:54.944Z,7.32
2023-04-16T14:21:21.861Z,4.25
2023-04-16T14:23:49.017Z,3.67
2023-04-16T14:26:16.081Z,3.70
2023-04-16T14:28:43.137Z,3.50
2023-04-16T14:31:10.123Z,3.42
2023-04-16T14:33:37.044Z,3.42
2023-04-16T14:36:04.397Z,2.92
2023-04-16T14:38:32.078Z,3.40
2023-04-16T14:41:00.375Z,3.47
2023-04-16T14:43:27.518Z,3.63
2023-04-16T14:45:54.542Z,3.80
2023-04-16T14:48:22.118Z,4.25
2023-04-16T14:50:49.118Z,3.88
2023-04-16T14:53:16.346Z,3.92
2023-04-16T14:55:43.264Z,3.90
2023-04-16T14:58:10.822Z,3.15
2023-04-16T15:00:38.048Z,3.58
2023-04-16T15:03:05.847Z,3.45
2023-04-16T15:05:33.137Z,3.60
2023-04-16T15:08:00.651Z,3.65
2023-04-16T15:10:28.133Z,3.60
2023-04-16T15:12:55.290Z,3.63
2023-04-16T15:15:22.280Z,3.20
2023-04-16T15:17:51.030Z,3.58
2023-04-16T15:20:18.522Z,2.80
2023-04-16T15:22:45.501Z,2.90
2023-04-16T15:25:12.655Z,2.88
2023-04-16T15:27:39.628Z,3.33
2023-04-16T15:30:07.513Z,3.78
2023-04-16T15:32:34.429Z,3.28
2023-04-16T15:35:04.906Z,3.08
2023-04-16T15:37:31.952Z,2.80
2023-04-16T15:39:58.992Z,2.97
2023-04-16T15:42:25.972Z,3.40
2023-04-16T15:44:52.920Z,3.13
2023-04-16T15:47:19.869Z,3.17
2023-04-16T15:49:46.771Z,4.25
2023-04-16T15:52:13.785Z,3.50
2023-04-16T15:54:40.954Z,4.30
2023-04-16T15:57:07.999Z,3.88
2023-04-16T15:59:34.972Z,3.30
2023-04-16T16:02:02.106Z,3.92
2023-04-16T16:04:29.235Z,3.40
2023-04-16T16:06:56.948Z,3.42
2023-04-16T16:09:26.770Z,3.58
2023-04-16T16:11:54.983Z,3.67
2023-04-16T16:14:22.758Z,3.83
2023-04-16T16:16:49.921Z,3.55
2023-04-16T16:19:17.604Z,4.10
2023-04-16T16:21:44.579Z,3.90
2023-04-16T16:24:11.518Z,4.22
2023-04-16T16:26:38.538Z,4.57
2023-04-16T16:29:05.722Z,4.70
2023-04-16T16:31:32.872Z,4.57
2023-04-16T16:34:00.040Z,4.50
2023-04-16T16:36:29.687Z,4.30
2023-04-16T16:38:56.992Z,4.33
2023-04-16T16:41:23.896Z,4.47
2023-04-16T16:43:51.081Z,4.30
2023-04-16T16:46:18.076Z,3.97
2023-04-16T16:48:45.014Z,4.37
2023-04-16T16:51:11.994Z,4.60
2023-04-16T16:53:38.954Z,4.40
2023-04-16T16:56:06.120Z,4.07
2023-04-16T16:58:33.046Z,4.13
2023-04-16T17:01:00.229Z,4.30
2023-04-16T17:03:27.593Z,4.57
2023-04-16T17:05:54.854Z,5.90
2023-04-16T17:08:21.934Z,8.80
2023-04-16T17:10:48.907Z,5.83
2023-04-16T17:13:19.696Z,6.60
2023-04-16T17:15:47.110Z,6.00
2023-04-16T17:18:14.080Z,6.47
2023-04-16T17:20:41.287Z,6.13
2023-04-16T17:23:08.370Z,6.90
2023-04-16T17:25:35.289Z,6.00
2023-04-16T17:28:02.982Z,6.47
2023-04-16T17:30:31.589Z,6.00
2023-04-16T17:32:58.642Z,5.13
2023-04-16T17:35:25.785Z,4.50
2023-04-16T17:37:52.721Z,4.70
2023-04-16T17:40:19.742Z,4.33
2023-04-16T17:42:48.784Z,4.90
2023-04-16T17:45:16.039Z,5.00
2023-04-16T17:47:44.486Z,4.83
2023-04-16T17:50:12.001Z,5.40
2023-04-16T17:52:39.054Z,4.70
2023-04-16T17:55:07.725Z,5.07
2023-04-16T17:57:34.669Z,5.40
2023-04-16T18:00:01.610Z,5.43
2023-04-16T18:02:28.776Z,6.57
2023-04-16T18:04:56.186Z,5.60
2023-04-16T18:07:23.343Z,5.73
2023-04-16T18:09:50.323Z,6.00
2023-04-16T18:12:17.247Z,5.30
2023-04-16T18:14:44.799Z,5.57
2023-04-16T18:17:13.066Z,6.30
2023-04-16T18:19:43.615Z,5.27
2023-04-16T18:22:11.210Z,5.00
2023-04-16T18:24:38.214Z,5.40
2023-04-16T18:27:05.861Z,6.27
2023-04-16T18:29:34.125Z,5.73
2023-04-16T18:32:04.321Z,5.23
2023-04-16T18:34:32.243Z,6.10
2023-04-16T18:36:59.285Z,6.10
2023-04-16T18:39:26.426Z,6.30
2023-04-16T18:41:53.338Z,5.97
2023-04-16T18:44:20.742Z,6.13
2023-04-16T18:46:48.546Z,7.10
2023-04-16T18:49:15.693Z,6.53
2023-04-16T18:51:42.769Z,6.20
2023-04-16T18:54:09.723Z,6.33
2023-04-16T18:56:36.909Z,6.70
2023-04-16T18:59:03.960Z,7.13
2023-04-16T19:01:31.121Z,6.90
2023-04-16T19:03:58.205Z,6.43
2023-04-16T19:06:25.203Z,6.50
2023-04-16T19:08:52.146Z,6.23
2023-04-16T19:11:19.104Z,6.23
2023-04-16T19:13:46.315Z,5.93
2023-04-16T19:16:13.325Z,6.37
2023-04-16T19:18:40.376Z,6.90
2023-04-16T19:21:07.480Z,7.40
2023-04-16T19:23:34.728Z,7.37
2023-04-16T19:26:01.865Z,8.23
2023-04-16T19:28:29.161Z,7.97
2023-04-16T19:30:56.289Z,7.60
2023-04-16T19:33:23.268Z,8.53
2023-04-16T19:35:50.430Z,8.73
2023-04-16T19:38:17.481Z,8.23
2023-04-16T19:40:46.657Z,7.43
2023-04-16T19:43:13.989Z,8.47
2023-04-16T19:45:54.830Z,8.37
2023-04-16T19:48:21.909Z,8.33
2023-04-16T19:50:48.901Z,9.00
2023-04-16T19:53:17.248Z,9.73
2023-04-16T19:55:44.203Z,10.20
2023-04-16T19:58:11.146Z,12.73
2023-04-16T20:00:43.679Z,16.07
2023-04-16T20:03:10.895Z,18.53
2023-04-16T20:05:37.855Z,19.67
2023-04-16T20:08:05.506Z,20.70
2023-04-16T20:10:32.507Z,19.43
2023-04-16T20:12:59.558Z,19.93
2023-04-16T20:15:26.533Z,18.87
2023-04-16T20:17:53.613Z,19.57
2023-04-16T20:20:22.727Z,19.53
2023-04-16T20:22:50.041Z,18.67
2023-04-16T20:25:19.091Z,18.50
2023-04-16T20:27:46.534Z,21.57
2023-04-16T20:30:14.237Z,20.87
2023-04-16T20:32:41.193Z,23.00
2023-04-16T20:35:10.954Z,23.57
2023-04-16T20:37:47.468Z,22.17
2023-04-16T20:40:15.004Z,21.80
2023-04-16T20:42:46.297Z,21.03
2023-04-16T20:45:13.516Z,20.67
2023-04-16T20:47:40.565Z,19.77
2023-04-16T20:50:08.405Z,18.20
2023-04-16T20:52:36.517Z,22.73
2023-04-16T20:55:03.728Z,24.53
2023-04-16T20:57:31.981Z,23.90
2023-04-16T20:59:58.937Z,26.87
2023-04-16T21:02:28.179Z,26.80
2023-04-16T21:04:55.576Z,26.77
2023-04-16T21:07:22.641Z,28.77
2023-04-16T21:09:49.663Z,28.40
2023-04-16T21:12:16.615Z,28.97
2023-04-16T21:14:43.674Z,27.57
2023-04-16T21:17:10.865Z,27.93
2023-04-16T21:19:37.773Z,27.50
2023-04-16T21:22:04.860Z,26.87
2023-04-16T21:24:32.646Z,26.07
2023-04-16T21:26:59.620Z,26.10
2023-04-16T21:29:26.589Z,26.43
2023-04-16T21:31:54.262Z,25.27
2023-04-16T21:34:21.279Z,23.80
2023-04-16T21:36:54.353Z,21.47
2023-04-16T21:39:30.354Z,19.50
2023-04-16T21:41:58.074Z,20.20
2023-04-16T21:44:25.090Z,19.97
2023-04-16T21:46:52.030Z,20.17
2023-04-16T21:49:19.348Z,19.77
2023-04-16T21:51:46.255Z,20.47
2023-04-16T21:54:17.879Z,21.10
2023-04-16T21:56:44.889Z,20.00
2023-04-16T21:59:11.951Z,19.97
2023-04-16T22:01:38.997Z,20.40
2023-04-16T22:04:07.532Z,20.17
2023-04-16T22:06:34.546Z,20.33
2023-04-16T22:09:01.994Z,20.73
2023-04-16T22:11:28.931Z,21.87
2023-04-16T22:13:57.814Z,21.90
2023-04-16T22:16:25.693Z,21.90
2023-04-16T22:18:55.116Z,21.40
2023-04-16T22:21:22.015Z,20.70
2023-04-16T22:23:48.922Z,20.07
2023-04-16T22:26:16.135Z,23.57
2023-04-16T22:28:43.167Z,24.40
2023-04-16T22:31:10.120Z,28.63
2023-04-16T22:33:37.263Z,27.20
2023-04-16T22:36:04.610Z,27.93
2023-04-16T22:38:38.858Z,25.20
2023-04-16T22:41:05.875Z,27.10
2023-04-16T22:43:36.662Z,24.87
2023-04-16T22:46:06.487Z,24.33
2023-04-16T22:48:36.201Z,23.17
2023-04-16T22:51:09.122Z,22.90
2023-04-16T22:53:36.815Z,23.13
2023-04-16T22:56:03.896Z,21.73
2023-04-16T22:58:31.021Z,20.97
2023-04-16T23:00:59.485Z,21.53
2023-04-16T23:03:27.802Z,20.10
2023-04-16T23:05:54.831Z,22.07
2023-04-16T23:08:21.744Z,22.27
2023-04-16T23:10:48.643Z,22.57
2023-04-16T23:13:17.762Z,21.67
2023-04-16T23:15:45.908Z,24.43
2023-04-16T23:18:13.345Z,24.13
2023-04-16T23:20:41.339Z,24.27
2023-04-16T23:23:08.353Z,25.47
2023-04-16T23:25:37.318Z,25.80
2023-04-16T23:28:06.347Z,25.43
2023-04-16T23:30:33.243Z,25.90
2023-04-16T23:33:24.132Z,25.20
2023-04-16T23:35:51.099Z,27.57
2023-04-16T23:38:18.011Z,28.07
2023-04-16T23:40:45.015Z,28.63
2023-04-16T23:43:18.916Z,28.37
2023-04-16T23:45:46.011Z,29.50
2023-04-16T23:48:19.933Z,29.60
2023-04-16T23:50:46.862Z,30.43
2023-04-16T23:53:13.877Z,30.43
2023-04-16T23:55:40.937Z,30.77
2023-04-16T23:58:08.046Z,33.13
